sensor_id;sensor_type;location;lat;lon;timestamp;pressure;altitude;pressure_sealevel;temperature;humidity
7760;BME280;3924;48.830;9.262;2023-04-27T00:00:59;98684.47;;;9.60;63.49
7760;BME280;3924;48.830;9.262;2023-04-27T00:03:26;98686.38;;;9.59;63.73
7760;BME280;3924;48.830;9.262;2023-04-27T00:05:53;98684.75;;;9.58;63.60
7760;BME280;3924;48.830;9.262;2023-04-27T00:08:20;98675.53;;;9.59;64.15
7760;BME280;3924;48.830;9.262;2023-04-27T00:10:47;98683.16;;;9.57;64.39
7760;BME280;3924;48.830;9.262;2023-04-27T00:13:13;98674.50;;;9.55;64.06
7760;BME280;3924;48.830;9.262;2023-04-27T00:15:40;98679.94;;;9.55;63.71
7760;BME280;3924;48.830;9.262;2023-04-27T00:18:06;98671.84;;;9.50;63.94
7760;BME280;3924;48.830;9.262;2023-04-27T00:20:33;98681.06;;;9.49;63.93
7760;BME280;3924;48.830;9.262;2023-04-27T00:22:59;98669.97;;;9.46;64.34
7760;BME280;3924;48.830;9.262;2023-04-27T00:25:26;98669.16;;;9.45;64.94
7760;BME280;3924;48.830;9.262;2023-04-27T00:27:53;98663.47;;;9.47;64.22
7760;BME280;3924;48.830;9.262;2023-04-27T00:30:19;98661.59;;;9.47;64.64
7760;BME280;3924;48.830;9.262;2023-04-27T00:32:46;98672.16;;;9.44;64.67
7760;BME280;3924;48.830;9.262;2023-04-27T00:35:12;98662.72;;;9.41;64.65
7760;BME280;3924;48.830;9.262;2023-04-27T00:37:38;98657.81;;;9.43;64.73
7760;BME280;3924;48.830;9.262;2023-04-27T00:40:05;98667.56;;;9.44;64.67
7760;BME280;3924;48.830;9.262;2023-04-27T00:42:33;98659.94;;;9.46;64.71
7760;BME280;3924;48.830;9.262;2023-04-27T00:45:00;98657.78;;;9.48;64.18
7760;BME280;3924;48.830;9.262;2023-04-27T00:47:28;98661.59;;;9.47;64.58
7760;BME280;3924;48.830;9.262;2023-04-27T00:49:55;98658.34;;;9.45;64.63
7760;BME280;3924;48.830;9.262;2023-04-27T00:52:22;98659.75;;;9.38;65.52
7760;BME280;3924;48.830;9.262;2023-04-27T00:54:50;98658.66;;;9.39;65.13
7760;BME280;3924;48.830;9.262;2023-04-27T00:57:17;98648.94;;;9.38;65.58
7760;BME280;3924;48.830;9.262;2023-04-27T00:59:44;98650.84;;;9.37;65.61
7760;BME280;3924;48.830;9.262;2023-04-27T01:02:11;98654.63;;;9.36;65.40
7760;BME280;3924;48.830;9.262;2023-04-27T01:04:39;98653.31;;;9.34;65.43
7760;BME280;3924;48.830;9.262;2023-04-27T01:07:06;98649.50;;;9.35;65.37
7760;BME280;3924;48.830;9.262;2023-04-27T01:09:32;98654.94;;;9.29;65.94
7760;BME280;3924;48.830;9.262;2023-04-27T01:11:59;98655.25;;;9.28;65.13
7760;BME280;3924;48.830;9.262;2023-04-27T01:14:25;98648.72;;;9.29;65.94
7760;BME280;3924;48.830;9.262;2023-04-27T01:16:51;98651.16;;;9.30;66.45
7760;BME280;3924;48.830;9.262;2023-04-27T01:19:18;98658.47;;;9.30;66.21
7760;BME280;3924;48.830;9.262;2023-04-27T01:21:44;98655.75;;;9.30;65.93
7760;BME280;3924;48.830;9.262;2023-04-27T01:24:11;98658.22;;;9.26;66.46
7760;BME280;3924;48.830;9.262;2023-04-27T01:26:38;98653.88;;;9.25;66.20
7760;BME280;3924;48.830;9.262;2023-04-27T01:29:04;98659.59;;;9.24;66.76
7760;BME280;3924;48.830;9.262;2023-04-27T01:31:31;98655.25;;;9.23;66.22
7760;BME280;3924;48.830;9.262;2023-04-27T01:33:58;98660.16;;;9.21;66.89
7760;BME280;3924;48.830;9.262;2023-04-27T01:36:24;98657.72;;;9.19;67.20
7760;BME280;3924;48.830;9.262;2023-04-27T01:38:53;98658.53;;;9.20;66.69
7760;BME280;3924;48.830;9.262;2023-04-27T01:41:19;98660.19;;;9.16;67.15
7760;BME280;3924;48.830;9.262;2023-04-27T01:43:46;98650.47;;;9.10;67.09
7760;BME280;3924;48.830;9.262;2023-04-27T01:46:13;98651.84;;;9.07;67.05
7760;BME280;3924;48.830;9.262;2023-04-27T01:48:40;98655.41;;;9.02;67.36
7760;BME280;3924;48.830;9.262;2023-04-27T01:51:06;98658.66;;;8.99;67.54
7760;BME280;3924;48.830;9.262;2023-04-27T01:53:33;98666.78;;;8.99;67.92
7760;BME280;3924;48.830;9.262;2023-04-27T01:56:00;98668.41;;;9.00;67.57
7760;BME280;3924;48.830;9.262;2023-04-27T01:58:27;98670.53;;;8.98;67.34
7760;BME280;3924;48.830;9.262;2023-04-27T02:00:53;98668.94;;;8.97;67.77
7760;BME280;3924;48.830;9.262;2023-04-27T02:03:20;98676.53;;;8.95;67.61
7760;BME280;3924;48.830;9.262;2023-04-27T02:05:47;98670.03;;;8.91;67.63
7760;BME280;3924;48.830;9.262;2023-04-27T02:08:13;98670.63;;;8.88;68.45
7760;BME280;3924;48.830;9.262;2023-04-27T02:10:40;98673.06;;;8.85;67.65
7760;BME280;3924;48.830;9.262;2023-04-27T02:13:06;98678.75;;;8.83;67.91
7760;BME280;3924;48.830;9.262;2023-04-27T02:15:33;98676.31;;;8.82;68.78
7760;BME280;3924;48.830;9.262;2023-04-27T02:18:01;98673.63;;;8.82;68.50
7760;BME280;3924;48.830;9.262;2023-04-27T02:20:29;98680.34;;;8.84;68.32
7760;BME280;3924;48.830;9.262;2023-04-27T02:22:56;98674.94;;;8.84;68.29
7760;BME280;3924;48.830;9.262;2023-04-27T02:25:23;98682.53;;;8.82;68.88
7760;BME280;3924;48.830;9.262;2023-04-27T02:27:49;98689.31;;;8.80;68.47
7760;BME280;3924;48.830;9.262;2023-04-27T02:30:16;98684.44;;;8.76;68.01
7760;BME280;3924;48.830;9.262;2023-04-27T02:32:43;98691.22;;;8.74;68.99
7760;BME280;3924;48.830;9.262;2023-04-27T02:35:10;98690.66;;;8.77;68.23
7760;BME280;3924;48.830;9.262;2023-04-27T02:37:36;98685.25;;;8.77;68.61
7760;BME280;3924;48.830;9.262;2023-04-27T02:40:03;98682.03;;;8.75;69.04
7760;BME280;3924;48.830;9.262;2023-04-27T02:42:33;98683.41;;;8.72;68.91
7760;BME280;3924;48.830;9.262;2023-04-27T02:44:59;98689.06;;;8.76;68.78
7760;BME280;3924;48.830;9.262;2023-04-27T02:47:26;98684.44;;;8.76;69.07
7760;BME280;3924;48.830;9.262;2023-04-27T02:49:52;98693.13;;;8.79;68.84
7760;BME280;3924;48.830;9.262;2023-04-27T02:52:19;98689.06;;;8.76;69.10
7760;BME280;3924;48.830;9.262;2023-04-27T02:54:45;98693.38;;;8.77;68.46
7760;BME280;3924;48.830;9.262;2023-04-27T02:57:12;98697.69;;;8.78;69.19
7760;BME280;3924;48.830;9.262;2023-04-27T02:59:38;98710.66;;;8.81;68.94
7760;BME280;3924;48.830;9.262;2023-04-27T03:02:05;98702.84;;;8.80;68.84
7760;BME280;3924;48.830;9.262;2023-04-27T03:04:31;98698.53;;;8.79;68.96
7760;BME280;3924;48.830;9.262;2023-04-27T03:06:58;98692.56;;;8.76;69.46
7760;BME280;3924;48.830;9.262;2023-04-27T03:09:24;98696.63;;;8.74;69.17
7760;BME280;3924;48.830;9.262;2023-04-27T03:11:51;98697.97;;;8.71;69.09
7760;BME280;3924;48.830;9.262;2023-04-27T03:14:18;98699.91;;;8.66;69.58
7760;BME280;3924;48.830;9.262;2023-04-27T03:16:44;98700.44;;;8.63;69.41
7760;BME280;3924;48.830;9.262;2023-04-27T03:19:11;98698.03;;;8.61;69.46
7760;BME280;3924;48.830;9.262;2023-04-27T03:21:38;98698.31;;;8.65;68.83
7760;BME280;3924;48.830;9.262;2023-04-27T03:24:04;98701.53;;;8.67;69.34
7760;BME280;3924;48.830;9.262;2023-04-27T03:28:59;98705.06;;;8.62;69.59
7760;BME280;3924;48.830;9.262;2023-04-27T03:31:26;98701.03;;;8.60;69.63
7760;BME280;3924;48.830;9.262;2023-04-27T03:33:52;98698.84;;;8.62;69.66
7760;BME280;3924;48.830;9.262;2023-04-27T03:36:19;98696.66;;;8.64;69.62
7760;BME280;3924;48.830;9.262;2023-04-27T03:38:46;98698.84;;;8.62;69.67
7760;BME280;3924;48.830;9.262;2023-04-27T03:41:12;98695.59;;;8.65;69.85
7760;BME280;3924;48.830;9.262;2023-04-27T03:43:39;98695.06;;;8.63;70.37
7760;BME280;3924;48.830;9.262;2023-04-27T03:46:05;98695.06;;;8.63;69.86
7760;BME280;3924;48.830;9.262;2023-04-27T03:48:32;98697.47;;;8.64;70.30
7760;BME280;3924;48.830;9.262;2023-04-27T03:50:59;98699.66;;;8.62;70.06
7760;BME280;3924;48.830;9.262;2023-04-27T03:53:26;98702.34;;;8.57;70.13
7760;BME280;3924;48.830;9.262;2023-04-27T03:55:52;98710.75;;;8.56;70.36
7760;BME280;3924;48.830;9.262;2023-04-27T03:58:19;98704.00;;;8.58;70.34
7760;BME280;3924;48.830;9.262;2023-04-27T04:00:45;98701.03;;;8.60;70.21
7760;BME280;3924;48.830;9.262;2023-04-27T04:03:12;98702.06;;;8.64;70.44
7760;BME280;3924;48.830;9.262;2023-04-27T04:05:39;98696.69;;;8.59;70.37
7760;BME280;3924;48.830;9.262;2023-04-27T04:08:06;98701.31;;;8.53;70.42
7760;BME280;3924;48.830;9.262;2023-04-27T04:10:32;98702.66;;;8.50;70.63
7760;BME280;3924;48.830;9.262;2023-04-27T04:12:58;98701.03;;;8.49;70.36
7760;BME280;3924;48.830;9.262;2023-04-27T04:15:25;98704.31;;;8.46;70.22
7760;BME280;3924;48.830;9.262;2023-04-27T04:17:51;98702.94;;;8.44;70.59
7760;BME280;3924;48.830;9.262;2023-04-27T04:20:18;98709.44;;;8.43;70.80
7760;BME280;3924;48.830;9.262;2023-04-27T04:22:44;98705.41;;;8.45;70.98
7760;BME280;3924;48.830;9.262;2023-04-27T04:25:11;98706.44;;;8.49;70.07
7760;BME280;3924;48.830;9.262;2023-04-27T04:27:38;98700.50;;;8.53;70.33
7760;BME280;3924;48.830;9.262;2023-04-27T04:30:05;98715.06;;;8.57;70.42
7760;BME280;3924;48.830;9.262;2023-04-27T04:32:32;98712.13;;;8.58;70.92
7760;BME280;3924;48.830;9.262;2023-04-27T04:34:59;98714.53;;;8.60;70.62
7760;BME280;3924;48.830;9.262;2023-04-27T04:37:26;98716.44;;;8.59;70.48
7760;BME280;3924;48.830;9.262;2023-04-27T04:39:53;98710.22;;;8.59;70.28
7760;BME280;3924;48.830;9.262;2023-04-27T04:42:20;98718.03;;;8.60;70.70
7760;BME280;3924;48.830;9.262;2023-04-27T04:44:46;98716.16;;;8.61;70.85
7760;BME280;3924;48.830;9.262;2023-04-27T04:47:13;98714.25;;;8.61;70.76
7760;BME280;3924;48.830;9.262;2023-04-27T04:49:39;98718.84;;;8.61;70.75
7760;BME280;3924;48.830;9.262;2023-04-27T04:52:06;98725.88;;;8.57;71.12
7760;BME280;3924;48.830;9.262;2023-04-27T04:54:32;98721.03;;;8.59;71.44
7760;BME280;3924;48.830;9.262;2023-04-27T04:56:59;98723.44;;;8.60;71.13
7760;BME280;3924;48.830;9.262;2023-04-27T04:59:27;98718.03;;;8.60;70.73
7760;BME280;3924;48.830;9.262;2023-04-27T05:01:57;98716.66;;;8.63;70.91
7760;BME280;3924;48.830;9.262;2023-04-27T05:04:23;98723.69;;;8.69;70.75
7760;BME280;3924;48.830;9.262;2023-04-27T05:06:50;98728.56;;;8.72;70.30
7760;BME280;3924;48.830;9.262;2023-04-27T05:09:18;98727.47;;;8.73;70.57
7760;BME280;3924;48.830;9.262;2023-04-27T05:11:44;98723.91;;;8.77;71.21
7760;BME280;3924;48.830;9.262;2023-04-27T05:14:11;98728.25;;;8.79;70.57
7760;BME280;3924;48.830;9.262;2023-04-27T05:16:37;98732.28;;;8.81;70.93
7760;BME280;3924;48.830;9.262;2023-04-27T05:19:04;98732.28;;;8.81;70.40
7760;BME280;3924;48.830;9.262;2023-04-27T05:21:31;98723.06;;;8.87;70.66
7760;BME280;3924;48.830;9.262;2023-04-27T05:23:58;98717.66;;;8.87;71.07
7760;BME280;3924;48.830;9.262;2023-04-27T05:26:25;98719.28;;;8.83;70.87
7760;BME280;3924;48.830;9.262;2023-04-27T05:28:52;98725.78;;;8.82;70.82
7760;BME280;3924;48.830;9.262;2023-04-27T05:31:18;98728.22;;;8.84;70.22
7760;BME280;3924;48.830;9.262;2023-04-27T05:33:45;98727.91;;;8.90;70.83
7760;BME280;3924;48.830;9.262;2023-04-27T05:36:12;98730.03;;;8.98;71.34
7760;BME280;3924;48.830;9.262;2023-04-27T05:38:39;98737.31;;;9.03;70.09
7760;BME280;3924;48.830;9.262;2023-04-27T05:41:06;98734.88;;;9.07;70.92
7760;BME280;3924;48.830;9.262;2023-04-27T05:43:33;98733.78;;;9.13;70.62
7760;BME280;3924;48.830;9.262;2023-04-27T05:46:04;98735.59;;;9.22;70.72
7760;BME280;3924;48.830;9.262;2023-04-27T05:48:30;98742.91;;;9.27;70.42
7760;BME280;3924;48.830;9.262;2023-04-27T05:51:01;98737.47;;;9.27;70.49
7760;BME280;3924;48.830;9.262;2023-04-27T05:53:32;98742.31;;;9.30;70.16
7760;BME280;3924;48.830;9.262;2023-04-27T05:55:58;98746.09;;;9.34;69.80
7760;BME280;3924;48.830;9.262;2023-04-27T05:58:26;98752.53;;;9.43;70.14
7760;BME280;3924;48.830;9.262;2023-04-27T06:00:53;98747.03;;;9.53;69.31
7760;BME280;3924;48.830;9.262;2023-04-27T06:03:19;98747.78;;;9.64;69.06
7760;BME280;3924;48.830;9.262;2023-04-27T06:05:53;98748.28;;;9.71;69.38
7760;BME280;3924;48.830;9.262;2023-04-27T06:08:23;98751.75;;;9.77;68.79
7760;BME280;3924;48.830;9.262;2023-04-27T06:10:50;98757.41;;;9.80;69.12
7760;BME280;3924;48.830;9.262;2023-04-27T06:13:16;98753.28;;;9.88;69.01
7760;BME280;3924;48.830;9.262;2023-04-27T06:15:44;98767.56;;;9.99;68.71
7760;BME280;3924;48.830;9.262;2023-04-27T06:18:11;98764.53;;;10.05;69.24
7760;BME280;3924;48.830;9.262;2023-04-27T06:20:38;98764.22;;;10.12;68.64
7760;BME280;3924;48.830;9.262;2023-04-27T06:23:04;98762.25;;;10.18;68.78
7760;BME280;3924;48.830;9.262;2023-04-27T06:25:31;98760.38;;;10.18;68.40
7760;BME280;3924;48.830;9.262;2023-04-27T06:27:57;98763.88;;;10.19;68.53
7760;BME280;3924;48.830;9.262;2023-04-27T06:30:24;98767.09;;;10.21;68.07
7760;BME280;3924;48.830;9.262;2023-04-27T06:32:50;98776.28;;;10.30;67.93
7760;BME280;3924;48.830;9.262;2023-04-27T06:35:17;98769.69;;;10.36;68.46
7760;BME280;3924;48.830;9.262;2023-04-27T06:37:44;98764.19;;;10.46;67.73
7760;BME280;3924;48.830;9.262;2023-04-27T06:40:11;98764.66;;;10.53;67.41
7760;BME280;3924;48.830;9.262;2023-04-27T06:42:37;98761.59;;;10.60;67.68
7760;BME280;3924;48.830;9.262;2023-04-27T06:45:04;98767.78;;;10.65;67.24
7760;BME280;3924;48.830;9.262;2023-04-27T06:47:30;98761.44;;;10.75;66.46
7760;BME280;3924;48.830;9.262;2023-04-27T06:49:57;98764.91;;;10.81;67.30
7760;BME280;3924;48.830;9.262;2023-04-27T06:52:23;98764.56;;;10.87;66.50
7760;BME280;3924;48.830;9.262;2023-04-27T06:54:50;98772.06;;;10.95;66.41
7760;BME280;3924;48.830;9.262;2023-04-27T06:57:16;98777.13;;;11.02;66.69
7760;BME280;3924;48.830;9.262;2023-04-27T06:59:43;98772.75;;;11.06;65.91
7760;BME280;3924;48.830;9.262;2023-04-27T07:02:09;98770.25;;;11.10;66.59
7760;BME280;3924;48.830;9.262;2023-04-27T07:04:36;98778.34;;;11.15;66.07
7760;BME280;3924;48.830;9.262;2023-04-27T07:07:03;98771.94;;;11.24;65.48
7760;BME280;3924;48.830;9.262;2023-04-27T07:09:29;98783.72;;;11.39;65.61
7760;BME280;3924;48.830;9.262;2023-04-27T07:11:56;98786.06;;;11.45;65.39
7760;BME280;3924;48.830;9.262;2023-04-27T07:14:24;98780.25;;;11.52;64.75
7760;BME280;3924;48.830;9.262;2023-04-27T07:16:51;98779.34;;;11.62;65.21
7760;BME280;3924;48.830;9.262;2023-04-27T07:19:17;98784.34;;;11.73;64.96
7760;BME280;3924;48.830;9.262;2023-04-27T07:21:44;98777.69;;;11.79;64.02
7760;BME280;3924;48.830;9.262;2023-04-27T07:24:10;98772.81;;;11.82;63.71
7760;BME280;3924;48.830;9.262;2023-04-27T07:26:36;98773.75;;;11.91;63.84
7760;BME280;3924;48.830;9.262;2023-04-27T07:29:03;98770.06;;;12.00;63.46
7760;BME280;3924;48.830;9.262;2023-04-27T07:31:44;98769.19;;;12.05;63.63
7760;BME280;3924;48.830;9.262;2023-04-27T07:34:11;98771.09;;;12.04;63.72
7760;BME280;3924;48.830;9.262;2023-04-27T07:36:38;98770.66;;;11.97;64.27
7760;BME280;3924;48.830;9.262;2023-04-27T07:39:05;98768.34;;;12.23;63.80
7760;BME280;3924;48.830;9.262;2023-04-27T07:41:33;98761.38;;;12.77;62.15
7760;BME280;3924;48.830;9.262;2023-04-27T07:44:00;98763.47;;;13.08;61.88
7760;BME280;3924;48.830;9.262;2023-04-27T07:46:28;98765.22;;;13.31;61.31
7760;BME280;3924;48.830;9.262;2023-04-27T07:48:56;98759.09;;;13.62;61.08
7760;BME280;3924;48.830;9.262;2023-04-27T07:51:24;98765.91;;;13.73;60.21
7760;BME280;3924;48.830;9.262;2023-04-27T07:53:53;98761.88;;;13.71;59.71
7760;BME280;3924;48.830;9.262;2023-04-27T07:56:20;98755.72;;;13.65;59.92
7760;BME280;3924;48.830;9.262;2023-04-27T07:58:47;98762.06;;;13.74;59.86
7760;BME280;3924;48.830;9.262;2023-04-27T08:01:13;98756.56;;;13.88;59.67
7760;BME280;3924;48.830;9.262;2023-04-27T08:03:40;98761.34;;;13.82;59.34
7760;BME280;3924;48.830;9.262;2023-04-27T08:06:07;98755.69;;;13.79;59.60
7760;BME280;3924;48.830;9.262;2023-04-27T08:08:34;98755.63;;;13.92;59.62
7760;BME280;3924;48.830;9.262;2023-04-27T08:11:01;98766.72;;;13.96;59.88
7760;BME280;3924;48.830;9.262;2023-04-27T08:13:28;98759.97;;;14.16;58.63
7760;BME280;3924;48.830;9.262;2023-04-27T08:15:54;98755.50;;;14.42;57.92
7760;BME280;3924;48.830;9.262;2023-04-27T08:18:25;98756.94;;;14.71;57.51
7760;BME280;3924;48.830;9.262;2023-04-27T08:20:52;98746.38;;;14.78;57.69
7760;BME280;3924;48.830;9.262;2023-04-27T08:23:19;98749.56;;;14.80;57.03
7760;BME280;3924;48.830;9.262;2023-04-27T08:25:46;98744.31;;;14.92;56.68
7760;BME280;3924;48.830;9.262;2023-04-27T08:28:14;98741.59;;;14.92;57.16
7760;BME280;3924;48.830;9.262;2023-04-27T08:30:41;98748.66;;;14.93;56.67
7760;BME280;3924;48.830;9.262;2023-04-27T08:33:07;98737.47;;;15.03;56.54
7760;BME280;3924;48.830;9.262;2023-04-27T08:35:34;98738.91;;;15.10;55.97
7760;BME280;3924;48.830;9.262;2023-04-27T08:38:00;98739.06;;;15.04;56.04
7760;BME280;3924;48.830;9.262;2023-04-27T08:40:27;98734.28;;;15.19;55.47
7760;BME280;3924;48.830;9.262;2023-04-27T08:42:55;98738.50;;;15.42;54.93
7760;BME280;3924;48.830;9.262;2023-04-27T08:45:25;98736.13;;;15.58;54.54
7760;BME280;3924;48.830;9.262;2023-04-27T08:47:52;98728.56;;;15.64;54.45
7760;BME280;3924;48.830;9.262;2023-04-27T08:50:19;98733.06;;;15.77;53.74
7760;BME280;3924;48.830;9.262;2023-04-27T08:52:46;98731.16;;;15.86;53.92
7760;BME280;3924;48.830;9.262;2023-04-27T08:55:13;98720.50;;;15.84;53.75
7760;BME280;3924;48.830;9.262;2023-04-27T08:57:56;98721.81;;;15.70;54.27
7760;BME280;3924;48.830;9.262;2023-04-27T09:00:24;98734.34;;;15.71;53.78
7760;BME280;3924;48.830;9.262;2023-04-27T09:02:50;98721.16;;;15.47;53.99
7760;BME280;3924;48.830;9.262;2023-04-27T09:05:18;98717.63;;;15.46;53.80
7760;BME280;3924;48.830;9.262;2023-04-27T09:08:03;98731.44;;;15.58;53.50
7760;BME280;3924;48.830;9.262;2023-04-27T09:10:45;98726.78;;;15.76;53.40
7760;BME280;3924;48.830;9.262;2023-04-27T09:13:12;98725.66;;;15.95;52.61
7760;BME280;3924;48.830;9.262;2023-04-27T09:15:46;98728.22;;;16.08;52.32
7760;BME280;3924;48.830;9.262;2023-04-27T09:18:19;98722.25;;;16.15;51.83
7760;BME280;3924;48.830;9.262;2023-04-27T09:20:47;98729.13;;;16.30;51.72
7760;BME280;3924;48.830;9.262;2023-04-27T09:23:33;98728.31;;;16.38;51.20
7760;BME280;3924;48.830;9.262;2023-04-27T09:26:04;98737.19;;;16.35;50.93
7760;BME280;3924;48.830;9.262;2023-04-27T09:28:36;98735.22;;;16.44;50.46
7760;BME280;3924;48.830;9.262;2023-04-27T09:31:03;98733.25;;;16.53;50.56
7760;BME280;3924;48.830;9.262;2023-04-27T09:33:32;98736.09;;;16.65;50.22
7760;BME280;3924;48.830;9.262;2023-04-27T09:36:02;98739.00;;;16.60;49.38
7760;BME280;3924;48.830;9.262;2023-04-27T09:38:30;98738.50;;;16.67;49.46
7760;BME280;3924;48.830;9.262;2023-04-27T09:40:57;98727.00;;;16.91;49.25
7760;BME280;3924;48.830;9.262;2023-04-27T09:43:25;98725.19;;;17.04;48.70
7760;BME280;3924;48.830;9.262;2023-04-27T09:45:54;98723.00;;;16.88;48.82
7760;BME280;3924;48.830;9.262;2023-04-27T09:48:22;98726.75;;;16.66;49.06
7760;BME280;3924;48.830;9.262;2023-04-27T09:50:50;98724.84;;;16.58;49.38
7760;BME280;3924;48.830;9.262;2023-04-27T09:53:19;98721.47;;;16.70;48.96
7760;BME280;3924;48.830;9.262;2023-04-27T09:55:53;98715.31;;;16.82;48.78
7760;BME280;3924;48.830;9.262;2023-04-27T10:04:19;98716.19;;;16.94;48.00
7760;BME280;3924;48.830;9.262;2023-04-27T10:09:23;98713.59;;;16.98;48.28
7760;BME280;3924;48.830;9.262;2023-04-27T10:11:51;98711.66;;;16.99;47.73
7760;BME280;3924;48.830;9.262;2023-04-27T10:14:20;98712.56;;;17.11;47.05
7760;BME280;3924;48.830;9.262;2023-04-27T10:19:21;98717.66;;;17.42;46.33
7760;BME280;3924;48.830;9.262;2023-04-27T10:21:56;98712.69;;;17.36;46.73
7760;BME280;3924;48.830;9.262;2023-04-27T10:24:35;98718.44;;;17.22;46.41
7760;BME280;3924;48.830;9.262;2023-04-27T10:27:04;98714.91;;;17.42;46.50
7760;BME280;3924;48.830;9.262;2023-04-27T10:29:43;98712.31;;;17.46;46.62
7760;BME280;3924;48.830;9.262;2023-04-27T10:32:18;98715.66;;;17.31;46.12
7760;BME280;3924;48.830;9.262;2023-04-27T10:34:46;98718.41;;;17.31;46.36
7760;BME280;3924;48.830;9.262;2023-04-27T10:37:14;98720.66;;;17.49;45.97
7760;BME280;3924;48.830;9.262;2023-04-27T10:39:44;98715.16;;;17.70;45.21
7760;BME280;3924;48.830;9.262;2023-04-27T10:42:25;98704.44;;;17.65;45.32
7760;BME280;3924;48.830;9.262;2023-04-27T10:44:55;98704.09;;;17.46;45.79
7760;BME280;3924;48.830;9.262;2023-04-27T10:47:22;98704.63;;;17.18;46.13
7760;BME280;3924;48.830;9.262;2023-04-27T10:49:52;98705.56;;;17.22;46.13
7760;BME280;3924;48.830;9.262;2023-04-27T10:52:19;98696.22;;;17.44;45.71
7760;BME280;3924;48.830;9.262;2023-04-27T10:54:46;98684.19;;;17.79;44.73
7760;BME280;3924;48.830;9.262;2023-04-27T10:57:12;98687.19;;;18.19;44.79
7760;BME280;3924;48.830;9.262;2023-04-27T10:59:50;98690.97;;;18.39;44.13
7760;BME280;3924;48.830;9.262;2023-04-27T11:02:24;98693.03;;;18.42;43.79
7760;BME280;3924;48.830;9.262;2023-04-27T11:04:51;98686.31;;;18.39;43.82
7760;BME280;3924;48.830;9.262;2023-04-27T11:07:24;98701.19;;;18.05;44.43
7760;BME280;3924;48.830;9.262;2023-04-27T11:09:51;98686.53;;;18.01;44.46
7760;BME280;3924;48.830;9.262;2023-04-27T11:12:18;98689.44;;;17.84;44.95
7760;BME280;3924;48.830;9.262;2023-04-27T11:14:45;98690.78;;;17.98;44.17
7760;BME280;3924;48.830;9.262;2023-04-27T11:17:11;98680.59;;;17.99;44.52
7760;BME280;3924;48.830;9.262;2023-04-27T11:19:45;98682.59;;;18.23;43.27
7760;BME280;3924;48.830;9.262;2023-04-27T11:22:15;98679.75;;;18.31;43.45
7760;BME280;3924;48.830;9.262;2023-04-27T11:24:48;98682.63;;;18.59;43.22
7760;BME280;3924;48.830;9.262;2023-04-27T11:27:17;98685.03;;;18.49;43.26
7760;BME280;3924;48.830;9.262;2023-04-27T11:29:45;98684.53;;;18.22;43.88
7760;BME280;3924;48.830;9.262;2023-04-27T11:32:20;98685.59;;;18.42;42.80
7760;BME280;3924;48.830;9.262;2023-04-27T11:34:51;98677.81;;;18.44;43.33
7760;BME280;3924;48.830;9.262;2023-04-27T11:37:22;98677.47;;;18.34;43.13
7760;BME280;3924;48.830;9.262;2023-04-27T11:39:53;98674.25;;;18.31;43.23
7760;BME280;3924;48.830;9.262;2023-04-27T11:42:27;98673.84;;;18.66;42.92
7760;BME280;3924;48.830;9.262;2023-04-27T11:44:56;98671.91;;;18.79;42.65
7760;BME280;3924;48.830;9.262;2023-04-27T11:47:25;98689.41;;;18.62;43.25
7760;BME280;3924;48.830;9.262;2023-04-27T11:49:58;98686.97;;;18.36;42.74
7760;BME280;3924;48.830;9.262;2023-04-27T11:52:35;98690.41;;;18.33;43.58
7760;BME280;3924;48.830;9.262;2023-04-27T11:55:03;98684.59;;;18.59;43.11
7760;BME280;3924;48.830;9.262;2023-04-27T11:57:32;98684.13;;;18.57;42.96
7760;BME280;3924;48.830;9.262;2023-04-27T12:00:00;98685.38;;;18.47;42.76
7760;BME280;3924;48.830;9.262;2023-04-27T12:02:29;98682.50;;;18.44;42.59
7760;BME280;3924;48.830;9.262;2023-04-27T12:04:57;98683.75;;;18.34;42.89
7760;BME280;3924;48.830;9.262;2023-04-27T12:07:25;98678.06;;;18.51;42.29
7760;BME280;3924;48.830;9.262;2023-04-27T12:09:52;98672.72;;;18.92;41.80
7760;BME280;3924;48.830;9.262;2023-04-27T12:12:19;98659.38;;;19.30;41.68
7760;BME280;3924;48.830;9.262;2023-04-27T12:14:50;98659.44;;;19.58;40.23
7760;BME280;3924;48.830;9.262;2023-04-27T12:17:17;98659.44;;;19.58;40.64
7760;BME280;3924;48.830;9.262;2023-04-27T12:19:44;98658.84;;;19.53;40.80
7760;BME280;3924;48.830;9.262;2023-04-27T12:22:11;98652.19;;;19.54;40.97
7760;BME280;3924;48.830;9.262;2023-04-27T12:24:39;98660.78;;;19.64;40.62
7760;BME280;3924;48.830;9.262;2023-04-27T12:27:05;98658.69;;;19.74;40.77
7760;BME280;3924;48.830;9.262;2023-04-27T12:29:32;98653.31;;;19.93;40.73
7760;BME280;3924;48.830;9.262;2023-04-27T12:31:59;98650.50;;;20.05;40.47
7760;BME280;3924;48.830;9.262;2023-04-27T12:34:27;98649.16;;;20.15;40.39
7760;BME280;3924;48.830;9.262;2023-04-27T12:36:54;98655.03;;;19.98;40.15
7760;BME280;3924;48.830;9.262;2023-04-27T12:39:22;98650.16;;;19.51;41.15
7760;BME280;3924;48.830;9.262;2023-04-27T12:41:52;98651.50;;;19.57;40.62
7760;BME280;3924;48.830;9.262;2023-04-27T12:44:19;98645.97;;;19.69;40.88
7760;BME280;3924;48.830;9.262;2023-04-27T12:46:46;98650.72;;;19.84;40.36
7760;BME280;3924;48.830;9.262;2023-04-27T12:49:16;98642.50;;;20.00;39.16
7760;BME280;3924;48.830;9.262;2023-04-27T12:51:44;98641.09;;;20.06;39.53
7760;BME280;3924;48.830;9.262;2023-04-27T12:54:13;98639.69;;;20.12;40.09
7760;BME280;3924;48.830;9.262;2023-04-27T12:56:39;98632.22;;;20.13;39.70
7760;BME280;3924;48.830;9.262;2023-04-27T12:59:08;98627.75;;;19.92;39.93
7760;BME280;3924;48.830;9.262;2023-04-27T13:01:35;98628.81;;;19.88;40.32
7760;BME280;3924;48.830;9.262;2023-04-27T13:04:03;98633.25;;;19.92;39.66
7760;BME280;3924;48.830;9.262;2023-04-27T13:06:31;98626.59;;;19.93;40.69
7760;BME280;3924;48.830;9.262;2023-04-27T13:08:58;98631.59;;;19.76;40.32
7760;BME280;3924;48.830;9.262;2023-04-27T13:11:25;98632.94;;;19.54;40.91
7760;BME280;3924;48.830;9.262;2023-04-27T13:13:52;98623.59;;;19.43;41.00
7760;BME280;3924;48.830;9.262;2023-04-27T13:16:20;98621.97;;;19.41;40.62
7760;BME280;3924;48.830;9.262;2023-04-27T13:18:48;98617.28;;;19.42;40.77
7760;BME280;3924;48.830;9.262;2023-04-27T13:21:17;98622.84;;;19.70;39.66
7760;BME280;3924;48.830;9.262;2023-04-27T13:23:43;98612.59;;;19.99;39.76
7760;BME280;3924;48.830;9.262;2023-04-27T13:26:10;98617.03;;;20.19;39.98
7760;BME280;3924;48.830;9.262;2023-04-27T13:28:37;98618.72;;;20.23;39.47
7760;BME280;3924;48.830;9.262;2023-04-27T13:31:03;98613.63;;;20.10;39.22
7760;BME280;3924;48.830;9.262;2023-04-27T13:33:33;98613.75;;;20.29;39.02
7760;BME280;3924;48.830;9.262;2023-04-27T13:35:59;98617.91;;;20.23;39.25
7760;BME280;3924;48.830;9.262;2023-04-27T13:38:27;98606.75;;;20.32;39.89
7760;BME280;3924;48.830;9.262;2023-04-27T13:40:54;98598.56;;;20.51;39.31
7760;BME280;3924;48.830;9.262;2023-04-27T13:43:22;98607.31;;;20.72;39.06